createdAt,value
2024-01-06T00:00:24.852Z,0
2024-01-06T00:01:25.171Z,0
2024-01-06T00:02:25.426Z,0
2024-01-06T00:03:25.672Z,0
2024-01-06T00:04:26.114Z,0
2024-01-06T00:05:26.407Z,0
2024-01-06T00:06:26.699Z,0
2024-01-06T00:07:26.952Z,0
2024-01-06T00:08:27.098Z,0
2024-01-06T00:09:27.317Z,0
2024-01-06T00:10:27.616Z,0
2024-01-06T00:11:27.806Z,0
2024-01-06T00:12:27.992Z,0
2024-01-06T00:13:28.356Z,0
2024-01-06T00:14:28.522Z,0
2024-01-06T00:15:28.712Z,0
2024-01-06T00:16:29.617Z,0
2024-01-06T00:17:30.137Z,0
2024-01-06T00:18:30.542Z,0
2024-01-06T00:19:31.220Z,0
2024-01-06T00:20:31.696Z,0
2024-01-06T00:21:31.935Z,0
2024-01-06T00:22:32.263Z,0
2024-01-06T00:23:32.435Z,0
2024-01-06T00:24:32.665Z,0
2024-01-06T00:25:33.001Z,0
2024-01-06T00:26:33.168Z,0
2024-01-06T00:27:33.352Z,0
2024-01-06T00:28:33.700Z,0
2024-01-06T00:29:33.854Z,0
2024-01-06T00:30:34.062Z,0
2024-01-06T00:31:34.581Z,0
2024-01-06T00:32:36.561Z,0
2024-01-06T00:33:38.693Z,0
2024-01-06T00:34:39.444Z,0
2024-01-06T00:35:39.989Z,0
2024-01-06T00:36:40.225Z,0
2024-01-06T00:37:40.528Z,0
2024-01-06T00:38:40.705Z,0
2024-01-06T00:39:40.893Z,0
2024-01-06T00:40:41.111Z,0
2024-01-06T00:41:41.284Z,0
2024-01-06T00:42:41.510Z,0
2024-01-06T00:43:41.793Z,0
2024-01-06T00:44:42.051Z,0
2024-01-06T00:45:42.261Z,0
2024-01-06T00:46:42.549Z,0
2024-01-06T00:47:42.890Z,0
2024-01-06T00:48:43.418Z,0
2024-01-06T00:49:44.238Z,0
2024-01-06T00:50:44.778Z,0
2024-01-06T00:51:44.961Z,0
2024-01-06T00:52:45.266Z,0
2024-01-06T00:53:45.415Z,0
2024-01-06T00:54:45.585Z,0
2024-01-06T00:55:46.008Z,0
2024-01-06T00:56:46.179Z,0
2024-01-06T00:57:46.400Z,0
2024-01-06T00:58:46.877Z,0
2024-01-06T00:59:47.058Z,0
2024-01-06T01:00:47.290Z,0
2024-01-06T01:01:47.837Z,0
2024-01-06T01:02:48.129Z,0
2024-01-06T01:03:48.339Z,0
2024-01-06T01:04:48.830Z,0
2024-01-06T01:05:49.387Z,0
2024-01-06T01:06:49.835Z,0
2024-01-06T01:07:50.196Z,0
2024-01-06T01:08:50.381Z,0
2024-01-06T01:09:50.628Z,0
2024-01-06T01:10:51.026Z,0
2024-01-06T01:11:51.202Z,0
2024-01-06T01:12:51.397Z,0
2024-01-06T01:13:51.726Z,0
2024-01-06T01:14:52.003Z,0
2024-01-06T01:15:52.208Z,0
2024-01-06T01:16:52.564Z,0
2024-01-06T01:17:52.781Z,0
2024-01-06T01:18:53.166Z,0
2024-01-06T01:19:53.710Z,0
2024-01-06T01:20:54.212Z,0
2024-01-06T01:21:54.389Z,0
2024-01-06T01:22:54.734Z,0
2024-01-06T01:23:54.887Z,0
2024-01-06T01:24:55.092Z,0
2024-01-06T01:25:55.290Z,0
2024-01-06T01:26:55.476Z,0
2024-01-06T01:27:56.112Z,0
2024-01-06T01:28:56.421Z,0
2024-01-06T01:29:56.671Z,0
2024-01-06T01:30:57.104Z,0
2024-01-06T01:31:58.009Z,0
2024-01-06T01:32:58.581Z,0
2024-01-06T01:33:59.164Z,0
2024-01-06T01:34:59.807Z,0
2024-01-06T01:36:02.481Z,0
2024-01-06T01:37:03.625Z,0
2024-01-06T01:38:03.781Z,0
2024-01-06T01:39:03.981Z,0
2024-01-06T01:40:04.131Z,0
2024-01-06T01:41:04.317Z,0
2024-01-06T01:42:04.486Z,0
2024-01-06T01:43:04.647Z,0
2024-01-06T01:44:04.856Z,0
2024-01-06T01:45:05.055Z,0
2024-01-06T01:46:05.205Z,0
2024-01-06T01:47:05.368Z,0
2024-01-06T01:48:05.665Z,0
2024-01-06T01:49:06.401Z,0
2024-01-06T01:50:07.096Z,0
2024-01-06T01:51:07.556Z,0
2024-01-06T01:52:07.803Z,0
2024-01-06T01:53:07.958Z,0
2024-01-06T01:54:08.192Z,0
2024-01-06T01:55:08.517Z,0
2024-01-06T01:56:08.701Z,0
2024-01-06T01:57:08.870Z,0
2024-01-06T01:58:09.186Z,0
2024-01-06T01:59:09.331Z,0
2024-01-06T02:00:09.516Z,0
2024-01-06T02:01:09.971Z,0
2024-01-06T02:02:10.383Z,0
2024-01-06T02:03:10.642Z,0
2024-01-06T02:04:11.183Z,0
2024-01-06T02:05:11.639Z,0
2024-01-06T02:06:11.975Z,0
2024-01-06T02:07:12.358Z,0
2024-01-06T02:08:12.544Z,0
2024-01-06T02:09:12.791Z,0
2024-01-06T02:10:13.044Z,0
2024-01-06T02:11:13.260Z,0
2024-01-06T02:12:13.411Z,0
2024-01-06T02:13:13.697Z,0
2024-01-06T02:14:13.948Z,0
2024-01-06T02:15:14.121Z,0
2024-01-06T02:16:14.533Z,0
2024-01-06T02:17:14.698Z,0
2024-01-06T02:18:14.972Z,0
2024-01-06T02:19:15.661Z,0
2024-01-06T02:20:16.074Z,0
2024-01-06T02:21:16.229Z,0
2024-01-06T02:22:16.600Z,0
2024-01-06T02:23:16.740Z,0
2024-01-06T02:24:16.982Z,0
2024-01-06T02:25:17.200Z,0
2024-01-06T02:26:17.378Z,0
2024-01-06T02:27:17.583Z,0
2024-01-06T02:28:17.861Z,0
2024-01-06T02:29:18.022Z,0
2024-01-06T02:30:18.307Z,0
2024-01-06T02:31:18.816Z,0
2024-01-06T02:32:19.302Z,0
2024-01-06T02:33:19.527Z,0
2024-01-06T02:34:20.026Z,0
2024-01-06T02:35:20.415Z,0
2024-01-06T02:36:20.654Z,0
2024-01-06T02:37:21.018Z,0
2024-01-06T02:38:21.173Z,0
2024-01-06T02:39:21.368Z,0
2024-01-06T02:40:21.590Z,0
2024-01-06T02:41:21.729Z,0
2024-01-06T02:42:21.974Z,0
2024-01-06T02:43:22.316Z,0
2024-01-06T02:44:22.465Z,0
2024-01-06T02:45:22.662Z,0
2024-01-06T02:46:23.022Z,0
2024-01-06T02:47:23.250Z,0
2024-01-06T02:48:23.475Z,0
2024-01-06T02:49:24.216Z,0
2024-01-06T02:50:24.920Z,0
2024-01-06T02:51:25.108Z,0
2024-01-06T02:52:25.372Z,0
2024-01-06T02:53:25.535Z,0
2024-01-06T02:54:25.742Z,0
2024-01-06T02:55:26.100Z,0
2024-01-06T02:56:26.291Z,0
2024-01-06T02:57:26.464Z,0
2024-01-06T02:58:26.815Z,0
2024-01-06T02:59:26.984Z,0
2024-01-06T03:00:27.170Z,0
2024-01-06T03:01:27.468Z,0
2024-01-06T03:02:27.809Z,0
2024-01-06T03:03:28.041Z,0
2024-01-06T03:04:28.645Z,0
2024-01-06T03:05:28.896Z,0
2024-01-06T03:06:29.276Z,0
2024-01-06T03:07:29.588Z,0
2024-01-06T03:08:29.762Z,0
2024-01-06T03:09:29.963Z,0
2024-01-06T03:10:30.193Z,0
2024-01-06T03:11:30.351Z,0
2024-01-06T03:12:30.538Z,0
2024-01-06T03:13:30.830Z,0
2024-01-06T03:14:31.009Z,0
2024-01-06T03:15:31.235Z,0
2024-01-06T03:16:31.546Z,0
2024-01-06T03:17:32.014Z,0
2024-01-06T03:18:32.746Z,0
2024-01-06T03:19:33.481Z,0
2024-01-06T03:20:34.191Z,0
2024-01-06T03:21:34.464Z,0
2024-01-06T03:22:34.811Z,0
2024-01-06T03:23:34.979Z,0
2024-01-06T03:24:35.176Z,0
2024-01-06T03:25:35.480Z,0
2024-01-06T03:26:35.698Z,0
2024-01-06T03:27:35.916Z,0
2024-01-06T03:28:36.266Z,0
2024-01-06T03:29:36.419Z,0
2024-01-06T03:30:36.632Z,0
2024-01-06T03:31:37.102Z,0
2024-01-06T03:32:37.556Z,0
2024-01-06T03:33:37.794Z,0
2024-01-06T03:34:38.449Z,0
2024-01-06T03:35:38.818Z,0
2024-01-06T03:36:39.015Z,0
2024-01-06T03:37:39.251Z,0
2024-01-06T03:38:39.465Z,0
2024-01-06T03:39:39.665Z,0
2024-01-06T03:40:39.905Z,0
2024-01-06T03:41:40.062Z,0
2024-01-06T03:42:40.235Z,0
2024-01-06T03:43:40.517Z,0
2024-01-06T03:44:40.684Z,0
2024-01-06T03:45:40.961Z,0
2024-01-06T03:46:41.314Z,0
2024-01-06T03:47:41.533Z,0
2024-01-06T03:48:42.139Z,0
2024-01-06T03:49:42.858Z,0
2024-01-06T03:50:43.323Z,0
2024-01-06T03:51:43.779Z,0
2024-01-06T03:52:44.269Z,0
2024-01-06T03:53:44.452Z,0
2024-01-06T03:54:44.630Z,0
2024-01-06T03:55:45.009Z,0
2024-01-06T03:56:45.185Z,0
2024-01-06T03:57:45.387Z,0
2024-01-06T03:58:45.737Z,0
2024-01-06T03:59:46.004Z,0
2024-01-06T04:00:46.217Z,0
2024-01-06T04:01:46.666Z,0
2024-01-06T04:02:46.949Z,0
2024-01-06T04:03:47.350Z,0
2024-01-06T04:04:47.930Z,0
2024-01-06T04:05:48.614Z,0
2024-01-06T04:06:49.110Z,0
2024-01-06T04:07:49.463Z,0
2024-01-06T04:08:49.642Z,0
2024-01-06T04:09:50.054Z,0
2024-01-06T04:10:50.395Z,0
2024-01-06T04:11:50.556Z,0
2024-01-06T04:12:50.740Z,0
2024-01-06T04:13:51.002Z,0
2024-01-06T04:14:51.177Z,0
2024-01-06T04:15:51.355Z,0
2024-01-06T04:16:51.730Z,0
2024-01-06T04:17:51.956Z,0
2024-01-06T04:18:52.508Z,0
2024-01-06T04:19:53.095Z,0
2024-01-06T04:20:53.454Z,0
2024-01-06T04:21:53.742Z,0
2024-01-06T04:22:54.196Z,0
2024-01-06T04:23:54.363Z,0
2024-01-06T04:24:54.607Z,0
2024-01-06T04:25:55.012Z,0
2024-01-06T04:26:55.150Z,0
2024-01-06T04:27:55.329Z,0
2024-01-06T04:28:55.611Z,0
2024-01-06T04:29:55.754Z,0
2024-01-06T04:30:56.021Z,0
2024-01-06T04:31:56.547Z,0
2024-01-06T04:32:56.866Z,0
2024-01-06T04:33:57.418Z,0
2024-01-06T04:34:58.133Z,0
2024-01-06T04:35:58.289Z,0
2024-01-06T04:36:58.502Z,0
2024-01-06T04:37:58.935Z,0
2024-01-06T04:38:59.095Z,0
2024-01-06T04:39:59.294Z,0
2024-01-06T04:40:59.595Z,0
2024-01-06T04:41:59.791Z,0
2024-01-06T04:43:00.021Z,0
2024-01-06T04:44:00.404Z,0
2024-01-06T04:45:00.648Z,0
2024-01-06T04:46:00.820Z,0
2024-01-06T04:47:01.033Z,0
2024-01-06T04:48:01.223Z,0
2024-01-06T04:49:02.016Z,0
2024-01-06T04:50:02.552Z,0
2024-01-06T04:51:02.857Z,0
2024-01-06T04:52:03.055Z,0
2024-01-06T04:53:03.241Z,0
2024-01-06T04:54:03.413Z,0
2024-01-06T04:55:03.592Z,0
2024-01-06T04:56:03.780Z,0
2024-01-06T04:57:03.946Z,0
2024-01-06T04:58:04.104Z,0
2024-01-06T04:59:04.301Z,0
2024-01-06T05:00:04.466Z,0
2024-01-06T05:01:04.713Z,0
2024-01-06T05:02:05.376Z,0
2024-01-06T05:03:05.591Z,0
2024-01-06T05:04:05.951Z,0
2024-01-06T05:05:06.506Z,0
2024-01-06T05:06:06.753Z,0
2024-01-06T05:07:06.910Z,0
2024-01-06T05:08:07.105Z,0
2024-01-06T05:09:07.285Z,0
2024-01-06T05:10:07.482Z,0
2024-01-06T05:11:07.673Z,0
2024-01-06T05:12:07.829Z,0
2024-01-06T05:13:07.992Z,0
2024-01-06T05:14:08.140Z,0
2024-01-06T05:15:08.309Z,0
2024-01-06T05:16:08.460Z,0
2024-01-06T05:17:08.612Z,0
2024-01-06T05:18:08.904Z,0
2024-01-06T05:19:09.795Z,0
2024-01-06T05:20:10.341Z,0
2024-01-06T05:21:10.545Z,0
2024-01-06T05:22:10.823Z,0
2024-01-06T05:23:10.999Z,0
2024-01-06T05:24:11.177Z,0
2024-01-06T05:25:11.561Z,0
2024-01-06T05:26:11.706Z,0
2024-01-06T05:27:13.808Z,0
2024-01-06T05:28:14.761Z,0
2024-01-06T05:29:14.919Z,0
2024-01-06T05:30:15.139Z,0
2024-01-06T05:31:15.719Z,0
2024-01-06T05:32:16.125Z,0
2024-01-06T05:33:16.603Z,0
2024-01-06T05:34:17.282Z,0
2024-01-06T05:35:17.833Z,0
2024-01-06T05:36:18.190Z,0
2024-01-06T05:37:18.435Z,0
2024-01-06T05:38:18.588Z,0
2024-01-06T05:39:18.793Z,0
2024-01-06T05:40:19.055Z,0
2024-01-06T05:41:19.226Z,0
2024-01-06T05:42:19.388Z,0
2024-01-06T05:43:19.615Z,0
2024-01-06T05:44:19.777Z,0
2024-01-06T05:45:19.967Z,0
2024-01-06T05:46:20.167Z,0
2024-01-06T05:47:20.365Z,0
2024-01-06T05:48:20.754Z,0
2024-01-06T05:49:21.504Z,0
2024-01-06T05:50:21.888Z,0
2024-01-06T05:51:22.091Z,0
2024-01-06T05:52:22.493Z,0
2024-01-06T05:53:22.639Z,0
2024-01-06T05:54:22.880Z,0
2024-01-06T05:55:23.121Z,0
2024-01-06T05:56:23.273Z,0
2024-01-06T05:57:23.443Z,0
2024-01-06T05:58:23.887Z,0
2024-01-06T05:59:24.050Z,0
2024-01-06T06:00:24.259Z,0
2024-01-06T06:01:24.700Z,0
2024-01-06T06:02:25.276Z,0
2024-01-06T06:03:25.503Z,0
2024-01-06T06:04:25.983Z,0
2024-01-06T06:05:26.488Z,0
2024-01-06T06:06:26.793Z,0
2024-01-06T06:07:27.052Z,0
2024-01-06T06:08:27.209Z,0
2024-01-06T06:09:27.375Z,0
2024-01-06T06:10:27.665Z,0
2024-01-06T06:11:27.980Z,0
2024-01-06T06:12:28.144Z,0
2024-01-06T06:13:28.401Z,0
2024-01-06T06:14:30.166Z,0
2024-01-06T06:15:30.985Z,0
2024-01-06T06:16:31.256Z,0
2024-01-06T06:17:31.428Z,0
2024-01-06T06:18:31.774Z,0
2024-01-06T06:19:32.566Z,0
2024-01-06T06:20:33.070Z,0
2024-01-06T06:21:33.291Z,0
2024-01-06T06:22:33.790Z,0
2024-01-06T06:23:33.987Z,0
2024-01-06T06:24:34.152Z,0
2024-01-06T06:25:34.472Z,0
2024-01-06T06:26:34.625Z,0
2024-01-06T06:27:34.818Z,0
2024-01-06T06:28:35.057Z,0
2024-01-06T06:29:35.208Z,0
2024-01-06T06:30:35.420Z,0
2024-01-06T06:31:35.905Z,0
2024-01-06T06:32:36.403Z,0
2024-01-06T06:33:36.856Z,0
2024-01-06T06:34:37.573Z,0
2024-01-06T06:35:38.003Z,0
2024-01-06T06:36:38.268Z,0
2024-01-06T06:37:38.497Z,0
2024-01-06T06:38:38.660Z,0
2024-01-06T06:39:38.835Z,0
2024-01-06T06:40:39.146Z,0
2024-01-06T06:41:39.331Z,0
2024-01-06T06:42:39.544Z,0
2024-01-06T06:43:39.804Z,0
2024-01-06T06:44:40.005Z,0
2024-01-06T06:45:40.262Z,0
2024-01-06T06:46:40.618Z,0
2024-01-06T06:47:40.798Z,0
2024-01-06T06:48:41.087Z,0
2024-01-06T06:49:41.355Z,0
2024-01-06T06:50:41.640Z,0
2024-01-06T06:51:41.819Z,0
2024-01-06T06:52:42.052Z,0
2024-01-06T06:53:42.241Z,0
2024-01-06T06:54:42.442Z,0
2024-01-06T06:55:42.708Z,0
2024-01-06T06:56:42.914Z,0
2024-01-06T06:57:43.117Z,2
2024-01-06T06:58:43.372Z,3
2024-01-06T06:59:43.528Z,3
2024-01-06T07:00:43.729Z,4
2024-01-06T07:01:44.304Z,4
2024-01-06T07:02:44.620Z,4
2024-01-06T07:03:44.910Z,6
2024-01-06T07:04:45.164Z,6
2024-01-06T07:05:45.404Z,8
2024-01-06T07:06:46.005Z,8
2024-01-06T07:07:46.307Z,8
2024-01-06T07:08:46.464Z,11
2024-01-06T07:09:46.724Z,11
2024-01-06T07:10:46.936Z,11
2024-01-06T07:11:47.098Z,15
2024-01-06T07:12:47.328Z,15
2024-01-06T07:13:47.658Z,15
2024-01-06T07:14:47.841Z,20
2024-01-06T07:15:48.089Z,20
2024-01-06T07:16:48.386Z,20
2024-01-06T07:17:48.617Z,26
2024-01-06T07:18:49.419Z,26
2024-01-06T07:19:50.326Z,26
2024-01-06T07:20:50.675Z,34
2024-01-06T07:21:50.969Z,34
2024-01-06T07:22:51.411Z,34
2024-01-06T07:23:51.635Z,34
2024-01-06T07:24:51.949Z,45
2024-01-06T07:25:52.398Z,45
2024-01-06T07:26:52.554Z,45
2024-01-06T07:27:54.424Z,45
2024-01-06T07:28:56.306Z,45
2024-01-06T07:29:56.482Z,45
2024-01-06T07:30:56.682Z,45
2024-01-06T07:31:57.144Z,59
2024-01-06T07:32:57.347Z,59
2024-01-06T07:33:57.705Z,59
2024-01-06T07:34:58.659Z,59
2024-01-06T07:35:59.005Z,59
2024-01-06T07:36:59.167Z,59
2024-01-06T07:37:59.461Z,77
2024-01-06T07:38:59.616Z,77
2024-01-06T07:39:59.842Z,77
2024-01-06T07:41:00.302Z,77
2024-01-06T07:42:00.464Z,77
2024-01-06T07:43:00.663Z,110
2024-01-06T07:44:00.942Z,110
2024-01-06T07:45:01.114Z,110
2024-01-06T07:46:01.293Z,150
2024-01-06T07:47:01.655Z,150
2024-01-06T07:48:01.977Z,150
2024-01-06T07:49:02.989Z,200
2024-01-06T07:50:03.704Z,200
2024-01-06T07:51:03.995Z,200
2024-01-06T07:52:04.224Z,260
2024-01-06T07:53:04.387Z,260
2024-01-06T07:54:04.550Z,260
2024-01-06T07:55:04.721Z,260
2024-01-06T07:56:04.897Z,339.84
2024-01-06T07:57:05.058Z,339.84
2024-01-06T07:58:05.210Z,339.84
2024-01-06T07:59:05.375Z,339.84
2024-01-06T08:00:06.165Z,339.84
2024-01-06T08:01:07.196Z,339.84
2024-01-06T08:02:07.875Z,339.84
2024-01-06T08:03:08.065Z,339.84
2024-01-06T08:04:08.346Z,339.84
2024-01-06T08:05:08.909Z,339.84
2024-01-06T08:06:09.130Z,339.84
2024-01-06T08:07:09.501Z,339.84
2024-01-06T08:08:09.784Z,339.84
2024-01-06T08:09:09.941Z,339.84
2024-01-06T08:10:10.277Z,339.84
2024-01-06T08:11:10.785Z,339.84
2024-01-06T08:12:10.953Z,339.84
2024-01-06T08:13:11.284Z,339.84
2024-01-06T08:14:11.444Z,339.84
2024-01-06T08:15:11.677Z,449.92
2024-01-06T08:16:11.971Z,449.92
2024-01-06T08:17:12.141Z,449.92
2024-01-06T08:18:12.384Z,449.92
2024-01-06T08:19:13.242Z,449.92
2024-01-06T08:20:13.656Z,449.92
2024-01-06T08:21:13.868Z,589.76
2024-01-06T08:22:14.155Z,589.76
2024-01-06T08:23:14.317Z,589.76
2024-01-06T08:24:14.517Z,589.76
2024-01-06T08:25:15.142Z,779.52
2024-01-06T08:26:15.413Z,779.52
2024-01-06T08:27:15.596Z,779.52
2024-01-06T08:28:15.854Z,779.52
2024-01-06T08:29:15.987Z,779.52
2024-01-06T08:30:16.327Z,779.52
2024-01-06T08:31:17.182Z,779.52
2024-01-06T08:32:17.500Z,779.52
2024-01-06T08:33:17.750Z,779.52
2024-01-06T08:34:18.387Z,779.52
2024-01-06T08:35:18.965Z,779.52
2024-01-06T08:36:19.190Z,1019.52
2024-01-06T08:37:19.462Z,1019.52
2024-01-06T08:38:19.650Z,1019.52
2024-01-06T08:39:19.821Z,1019.52
2024-01-06T08:40:20.056Z,1019.52
2024-01-06T08:41:20.227Z,1019.52
2024-01-06T08:42:20.429Z,1019.52
2024-01-06T08:43:20.722Z,1019.52
2024-01-06T08:44:20.912Z,709.76
2024-01-06T08:45:21.173Z,709.76
2024-01-06T08:46:21.600Z,709.76
2024-01-06T08:47:21.773Z,489.92
2024-01-06T08:48:22.053Z,489.92
2024-01-06T08:49:22.705Z,489.92
2024-01-06T08:50:23.132Z,489.92
2024-01-06T08:51:23.363Z,489.92
2024-01-06T08:52:23.580Z,489.92
2024-01-06T08:53:23.717Z,489.92
2024-01-06T08:54:23.943Z,489.92
2024-01-06T08:55:24.285Z,489.92
2024-01-06T08:56:24.456Z,489.92
2024-01-06T08:57:24.698Z,489.92
2024-01-06T08:58:25.008Z,489.92
2024-01-06T08:59:25.159Z,489.92
2024-01-06T09:00:25.421Z,640
2024-01-06T09:01:25.949Z,640
2024-01-06T09:02:26.401Z,640
2024-01-06T09:03:26.578Z,640
2024-01-06T09:04:27.015Z,640
2024-01-06T09:05:27.397Z,640
2024-01-06T09:06:27.724Z,839.68
2024-01-06T09:07:27.954Z,839.68
2024-01-06T09:08:28.159Z,839.68
2024-01-06T09:09:28.417Z,1099.52
2024-01-06T09:10:28.666Z,1099.52
2024-01-06T09:11:28.848Z,1099.52
2024-01-06T09:12:29.105Z,1099.52
2024-01-06T09:13:29.348Z,1099.52
2024-01-06T09:14:29.488Z,1440
2024-01-06T09:15:29.743Z,1440
2024-01-06T09:16:30.240Z,1440
2024-01-06T09:17:30.437Z,1440
2024-01-06T09:18:31.096Z,1440
2024-01-06T09:19:31.867Z,1440
2024-01-06T09:20:32.365Z,1440
2024-01-06T09:21:32.881Z,1440
2024-01-06T09:22:33.179Z,1440
2024-01-06T09:23:33.325Z,1440
2024-01-06T09:24:33.505Z,1440
2024-01-06T09:25:33.727Z,1440
2024-01-06T09:26:33.906Z,1440
2024-01-06T09:27:34.123Z,1440
2024-01-06T09:28:34.508Z,1440
2024-01-06T09:29:34.677Z,1440
2024-01-06T09:30:34.876Z,1440
2024-01-06T09:31:35.576Z,1440
2024-01-06T09:32:36.256Z,1440
2024-01-06T09:33:36.579Z,1440
2024-01-06T09:34:39.855Z,1440
2024-01-06T09:35:41.070Z,1280
2024-01-06T09:36:41.243Z,1280
2024-01-06T09:37:41.653Z,1280
2024-01-06T09:38:41.850Z,1280
2024-01-06T09:39:42.066Z,1280
2024-01-06T09:40:42.306Z,1280
2024-01-06T09:41:42.481Z,1280
2024-01-06T09:42:42.738Z,1280
2024-01-06T09:43:42.976Z,1280
2024-01-06T09:44:43.157Z,1280
2024-01-06T09:45:43.363Z,1280
2024-01-06T09:46:43.691Z,1280
2024-01-06T09:47:43.893Z,1280
2024-01-06T09:48:44.492Z,1280
2024-01-06T09:49:45.509Z,1280
2024-01-06T09:50:46.014Z,1280
2024-01-06T09:51:46.295Z,1280
2024-01-06T09:52:46.595Z,1280
2024-01-06T09:53:46.791Z,1280
2024-01-06T09:54:46.956Z,1280
2024-01-06T09:55:47.205Z,1280
2024-01-06T09:56:47.382Z,1280
2024-01-06T09:57:47.555Z,1280
2024-01-06T09:58:48.141Z,1280
2024-01-06T09:59:48.431Z,1280
2024-01-06T10:00:48.678Z,1280
2024-01-06T10:01:49.201Z,1280
2024-01-06T10:02:49.431Z,999.68
2024-01-06T10:03:49.617Z,999.68
2024-01-06T10:04:50.189Z,999.68
2024-01-06T10:05:50.636Z,999.68
2024-01-06T10:06:50.933Z,999.68
2024-01-06T10:07:51.338Z,999.68
2024-01-06T10:08:51.518Z,999.68
2024-01-06T10:09:51.671Z,999.68
2024-01-06T10:10:52.000Z,999.68
2024-01-06T10:11:52.184Z,999.68
2024-01-06T10:12:52.368Z,999.68
2024-01-06T10:13:52.981Z,999.68
2024-01-06T10:14:53.791Z,999.68
2024-01-06T10:15:53.949Z,999.68
2024-01-06T10:16:54.236Z,999.68
2024-01-06T10:17:54.426Z,999.68
2024-01-06T10:18:54.990Z,999.68
2024-01-06T10:19:55.850Z,999.68
2024-01-06T10:20:56.380Z,999.68
2024-01-06T10:21:56.549Z,999.68
2024-01-06T10:22:56.841Z,999.68
2024-01-06T10:23:57.104Z,999.68
2024-01-06T10:24:57.294Z,999.68
2024-01-06T10:25:58.947Z,999.68
2024-01-06T10:27:05.963Z,1099.52
2024-01-06T10:28:06.191Z,1099.52
2024-01-06T10:29:06.362Z,1099.52
2024-01-06T10:30:06.552Z,1099.52
2024-01-06T10:31:06.897Z,1099.52
2024-01-06T10:32:07.337Z,1099.52
2024-01-06T10:33:07.584Z,1099.52
2024-01-06T10:34:08.035Z,1099.52
2024-01-06T10:35:08.647Z,1099.52
2024-01-06T10:36:08.934Z,1099.52
2024-01-06T10:37:09.184Z,1099.52
2024-01-06T10:38:09.567Z,1099.52
2024-01-06T10:39:09.780Z,1099.52
2024-01-06T10:40:10.171Z,1099.52
2024-01-06T10:41:10.580Z,1099.52
2024-01-06T10:42:10.762Z,1099.52
2024-01-06T10:43:10.915Z,1099.52
2024-01-06T10:44:11.099Z,1099.52
2024-01-06T10:45:11.274Z,1099.52
2024-01-06T10:46:11.582Z,1099.52
2024-01-06T10:47:13.085Z,1099.52
2024-01-06T10:48:13.380Z,1099.52
2024-01-06T10:49:14.241Z,1739.52
2024-01-06T10:50:14.806Z,1739.52
2024-01-06T10:51:15.223Z,1739.52
2024-01-06T10:52:16.018Z,1739.52
2024-01-06T10:53:16.610Z,1739.52
2024-01-06T10:54:16.998Z,1739.52
2024-01-06T10:55:17.315Z,1739.52
2024-01-06T10:56:17.458Z,1739.52
2024-01-06T10:57:17.690Z,1739.52
2024-01-06T10:58:17.993Z,1739.52
2024-01-06T10:59:18.171Z,1739.52
2024-01-06T11:00:18.374Z,1739.52
2024-01-06T11:01:20.547Z,1739.52
2024-01-06T11:02:27.149Z,1459.2
2024-01-06T11:03:27.411Z,1459.2
2024-01-06T11:04:27.887Z,1459.2
2024-01-06T11:05:28.579Z,1459.2
2024-01-06T11:06:28.890Z,1459.2
2024-01-06T11:07:29.152Z,1459.2
2024-01-06T11:08:29.354Z,1459.2
2024-01-06T11:09:29.559Z,1459.2
2024-01-06T11:10:29.778Z,1459.2
2024-01-06T11:11:29.939Z,1459.2
2024-01-06T11:12:30.138Z,1459.2
2024-01-06T11:13:30.399Z,1459.2
2024-01-06T11:14:30.540Z,1459.2
2024-01-06T11:15:30.759Z,1459.2
2024-01-06T11:16:31.053Z,1459.2
2024-01-06T11:17:33.765Z,1459.2
2024-01-06T11:18:46.177Z,1879.04
2024-01-06T11:19:46.999Z,1879.04
2024-01-06T11:20:47.554Z,1879.04
2024-01-06T11:21:47.733Z,1879.04
2024-01-06T11:22:48.044Z,1879.04
2024-01-06T11:23:48.221Z,1879.04
2024-01-06T11:24:48.430Z,1879.04
2024-01-06T11:25:48.756Z,1879.04
2024-01-06T11:26:48.913Z,1879.04
2024-01-06T11:27:49.080Z,1879.04
2024-01-06T11:28:49.323Z,1879.04
2024-01-06T11:29:49.481Z,1879.04
2024-01-06T11:30:49.715Z,1879.04
2024-01-06T11:31:50.350Z,1879.04
2024-01-06T11:32:51.226Z,1879.04
2024-01-06T11:33:51.543Z,1879.04
2024-01-06T11:34:52.208Z,1879.04
2024-01-06T11:35:52.645Z,1879.04
2024-01-06T11:36:52.875Z,1879.04
2024-01-06T11:37:53.231Z,1879.04
2024-01-06T11:38:53.427Z,1879.04
2024-01-06T11:39:53.699Z,1879.04
2024-01-06T11:40:54.248Z,1879.04
2024-01-06T11:41:54.397Z,1879.04
2024-01-06T11:42:54.619Z,1879.04
2024-01-06T11:43:54.964Z,1879.04
2024-01-06T11:44:55.136Z,1879.04
2024-01-06T11:45:55.324Z,1879.04
2024-01-06T11:46:55.576Z,1879.04
2024-01-06T11:47:55.779Z,1200
2024-01-06T11:48:56.256Z,1200
2024-01-06T11:49:56.820Z,1200
2024-01-06T11:50:57.129Z,1200
2024-01-06T11:51:57.317Z,1200
2024-01-06T11:52:57.611Z,1200
2024-01-06T11:53:57.761Z,1200
2024-01-06T11:54:57.918Z,1200
2024-01-06T11:55:58.229Z,1200
2024-01-06T11:56:58.391Z,1200
2024-01-06T11:57:58.684Z,1200
2024-01-06T11:58:59.272Z,1200
2024-01-06T11:59:59.469Z,1200
2024-01-06T12:00:59.670Z,1200
2024-01-06T12:02:00.048Z,1200
2024-01-06T12:03:00.463Z,1200
2024-01-06T12:04:00.685Z,1200
2024-01-06T12:05:01.069Z,1200
2024-01-06T12:06:01.560Z,1200
2024-01-06T12:07:01.873Z,1200
2024-01-06T12:08:02.179Z,1200
2024-01-06T12:09:02.366Z,1200
2024-01-06T12:10:02.565Z,1200
2024-01-06T12:11:03.206Z,1559.04
2024-01-06T12:12:03.366Z,1559.04
2024-01-06T12:13:03.662Z,1559.04
2024-01-06T12:14:04.436Z,2039.04
2024-01-06T12:15:04.610Z,2039.04
2024-01-06T12:16:04.859Z,2039.04
2024-01-06T12:17:05.205Z,2039.04
2024-01-06T12:18:05.457Z,2039.04
2024-01-06T12:19:05.834Z,2039.04
2024-01-06T12:20:06.329Z,2039.04
2024-01-06T12:21:06.610Z,2039.04
2024-01-06T12:22:06.798Z,2039.04
2024-01-06T12:23:07.711Z,2039.04
2024-01-06T12:24:08.647Z,2039.04
2024-01-06T12:25:08.801Z,2039.04
2024-01-06T12:26:08.993Z,2039.04
2024-01-06T12:27:09.151Z,2039.04
2024-01-06T12:28:09.677Z,2039.04
2024-01-06T12:29:10.770Z,2039.04
2024-01-06T12:30:10.937Z,2039.04
2024-01-06T12:31:11.265Z,2039.04
2024-01-06T12:32:11.919Z,2039.04
2024-01-06T12:33:12.253Z,2039.04
2024-01-06T12:34:12.743Z,1419.52
2024-01-06T12:35:13.179Z,1419.52
2024-01-06T12:36:18.073Z,1419.52
2024-01-06T12:37:27.878Z,1319.68
2024-01-06T12:38:28.042Z,1319.68
2024-01-06T12:39:28.273Z,1319.68
2024-01-06T12:40:28.539Z,1319.68
2024-01-06T12:41:28.692Z,1319.68
2024-01-06T12:42:28.855Z,1319.68
2024-01-06T12:43:29.096Z,1319.68
2024-01-06T12:44:29.290Z,1319.68
2024-01-06T12:45:29.484Z,1319.68
2024-01-06T12:46:29.786Z,1319.68
2024-01-06T12:47:29.945Z,989.44
2024-01-06T12:48:30.499Z,989.44
2024-01-06T12:49:31.174Z,989.44
2024-01-06T12:50:31.389Z,989.44
2024-01-06T12:51:31.590Z,989.44
2024-01-06T12:52:32.089Z,989.44
2024-01-06T12:53:32.244Z,689.92
2024-01-06T12:54:32.607Z,689.92
2024-01-06T12:55:33.020Z,689.92
2024-01-06T12:56:33.208Z,689.92
2024-01-06T12:57:33.434Z,480
2024-01-06T12:58:33.720Z,480
2024-01-06T12:59:33.887Z,480
2024-01-06T13:00:36.782Z,480
2024-01-06T13:01:37.993Z,389.76
2024-01-06T13:02:38.765Z,389.76
2024-01-06T13:03:39.064Z,389.76
2024-01-06T13:04:39.523Z,389.76
2024-01-06T13:05:39.962Z,389.76
2024-01-06T13:06:40.240Z,389.76
2024-01-06T13:07:40.494Z,389.76
2024-01-06T13:08:40.657Z,389.76
2024-01-06T13:09:40.809Z,389.76
2024-01-06T13:10:41.170Z,389.76
2024-01-06T13:11:41.350Z,389.76
2024-01-06T13:12:41.587Z,389.76
2024-01-06T13:13:42.019Z,389.76
2024-01-06T13:14:42.169Z,389.76
2024-01-06T13:15:42.421Z,389.76
2024-01-06T13:16:42.955Z,389.76
2024-01-06T13:17:43.352Z,389.76
2024-01-06T13:18:44.027Z,389.76
2024-01-06T13:19:44.622Z,389.76
2024-01-06T13:20:45.124Z,389.76
2024-01-06T13:21:45.314Z,389.76
2024-01-06T13:22:45.603Z,389.76
2024-01-06T13:23:45.734Z,389.76
2024-01-06T13:24:45.993Z,389.76
2024-01-06T13:25:46.240Z,389.76
2024-01-06T13:26:46.400Z,389.76
2024-01-06T13:27:46.606Z,389.76
2024-01-06T13:28:46.923Z,389.76
2024-01-06T13:29:47.108Z,389.76
2024-01-06T13:30:47.287Z,389.76
2024-01-06T13:31:47.768Z,389.76
2024-01-06T13:32:48.612Z,389.76
2024-01-06T13:33:48.997Z,389.76
2024-01-06T13:34:49.441Z,389.76
2024-01-06T13:35:49.816Z,389.76
2024-01-06T13:36:50.054Z,389.76
2024-01-06T13:37:50.344Z,389.76
2024-01-06T13:38:50.533Z,389.76
2024-01-06T13:39:50.760Z,389.76
2024-01-06T13:40:51.089Z,389.76
2024-01-06T13:41:51.246Z,389.76
2024-01-06T13:42:51.456Z,389.76
2024-01-06T13:43:51.778Z,389.76
2024-01-06T13:44:52.006Z,389.76
2024-01-06T13:45:52.223Z,389.76
2024-01-06T13:46:52.485Z,389.76
2024-01-06T13:47:52.755Z,389.76